Time;durP1;ratioP1;P1;durP2;ratioP2;P2;SDS_P1;SDS_P2;PMS_P1;PMS_P2;Temp;Humidity;BMP_temperature;BMP_pressure;BME280_temperature;BME280_humidity;BME280_pressure;Samples;Min_cycle;Max_cycle;Signal;HPM_P1;HPM_P2
2021/10/05 00:01:14;;;;;;;3.42;1.60;;;21.30;41.60;;;;;;5104541;23;20064;-43
2021/10/05 00:03:16;;;;;;;3.50;1.63;;;21.30;41.10;;;;;;5108972;23;20012;-43
2021/10/05 00:05:18;;;;;;;5.00;2.03;;;21.30;41.90;;;;;;5107857;23;20020;-43
2021/10/05 00:07:20;;;;;;;4.32;1.95;;;21.30;41.20;;;;;;5108168;23;20409;-44
2021/10/05 00:09:22;;;;;;;4.38;1.98;;;21.30;41.00;;;;;;5109182;23;20028;-43
2021/10/05 00:11:24;;;;;;;4.13;1.60;;;21.30;41.30;;;;;;5106656;23;20123;-45
2021/10/05 00:13:28;;;;;;;3.15;1.50;;;21.30;40.90;;;;;;5108483;23;20036;-44
2021/10/05 00:15:30;;;;;;;3.08;1.70;;;21.30;40.40;;;;;;5098362;23;20017;-45
2021/10/05 00:17:33;;;;;;;4.80;1.58;;;21.30;39.70;;;;;;5109167;23;20486;-44
2021/10/05 00:19:35;;;;;;;4.40;1.50;;;21.30;39.40;;;;;;5110665;23;20072;-43
2021/10/05 00:21:37;;;;;;;2.25;1.15;;;21.30;39.80;;;;;;5109775;23;20036;-45
2021/10/05 00:23:40;;;;;;;3.10;1.10;;;21.30;39.50;;;;;;5106409;23;20024;-44
2021/10/05 00:25:42;;;;;;;4.45;1.08;;;21.30;39.90;;;;;;5112817;23;20084;-43
2021/10/05 00:27:44;;;;;;;2.08;1.23;;;21.30;40.20;;;;;;5114567;23;20102;-44
2021/10/05 00:29:46;;;;;;;1.90;1.20;;;21.30;38.90;;;;;;5111451;23;20586;-42
2021/10/05 00:31:49;;;;;;;1.27;0.90;;;21.30;38.80;;;;;;5112656;23;20012;-43
2021/10/05 00:33:52;;;;;;;4.05;1.42;;;21.30;38.80;;;;;;5109544;23;20020;-45
2021/10/05 00:35:54;;;;;;;1.65;0.90;;;21.30;39.00;;;;;;5107886;23;20068;-45
2021/10/05 00:37:56;;;;;;;4.30;0.90;;;21.30;37.60;;;;;;5103599;23;20025;-44
2021/10/05 00:39:59;;;;;;;2.38;0.70;;;21.30;37.50;;;;;;5093640;23;20721;-44
2021/10/05 00:42:03;;;;;;;2.17;0.98;;;21.20;37.10;;;;;;5104398;23;20084;-45
2021/10/05 00:44:06;;;;;;;1.45;0.80;;;21.20;37.00;;;;;;5097352;23;20782;-46
2021/10/05 00:46:08;;;;;;;1.33;0.67;;;21.20;36.90;;;;;;5069471;23;20079;-42
2021/10/05 00:48:11;;;;;;;1.50;0.80;;;21.20;36.70;;;;;;5106633;23;20043;-44
2021/10/05 00:50:17;;;;;;;1.75;0.70;;;21.20;36.80;;;;;;5106101;23;20021;-45
2021/10/05 00:52:20;;;;;;;0.95;0.60;;;21.20;36.70;;;;;;5098979;23;20017;-42
2021/10/05 00:54:23;;;;;;;1.40;0.90;;;21.10;36.60;;;;;;5101593;23;20042;-43
2021/10/05 00:56:26;;;;;;;1.95;0.90;;;21.20;36.50;;;;;;5106281;23;20028;-47
2021/10/05 00:58:28;;;;;;;1.48;0.70;;;21.20;36.50;;;;;;5109227;23;20023;-43
2021/10/05 01:00:31;;;;;;;1.40;0.80;;;21.20;36.50;;;;;;5102522;23;20027;-45
2021/10/05 01:02:33;;;;;;;1.95;0.90;;;21.10;36.70;;;;;;5105537;23;20024;-45
2021/10/05 01:04:36;;;;;;;2.13;0.85;;;21.10;36.30;;;;;;5103412;23;20031;-43
2021/10/05 01:06:55;;;;;;;1.73;0.70;;;21.20;36.40;;;;;;5104693;23;20064;-43
2021/10/05 01:08:57;;;;;;;1.08;0.80;;;21.10;35.80;;;;;;5102680;23;20087;-41
2021/10/05 01:11:00;;;;;;;2.33;0.88;;;21.10;35.50;;;;;;5106604;23;20023;-44
2021/10/05 01:13:02;;;;;;;3.15;0.70;;;21.10;35.30;;;;;;5105046;23;20027;-43
2021/10/05 01:15:04;;;;;;;0.85;0.50;;;21.10;35.20;;;;;;5104770;23;20012;-43
2021/10/05 01:17:08;;;;;;;1.23;0.70;;;21.10;36.10;;;;;;5093826;23;20039;-46
2021/10/05 01:19:11;;;;;;;1.38;0.63;;;21.10;35.20;;;;;;5104207;23;20017;-48
2021/10/05 01:21:13;;;;;;;1.65;0.85;;;21.10;34.80;;;;;;5101425;23;20028;-47
2021/10/05 01:23:15;;;;;;;1.42;0.57;;;21.10;35.10;;;;;;5103614;23;20099;-47
2021/10/05 01:25:18;;;;;;;1.25;0.60;;;21.10;34.90;;;;;;5101475;23;20024;-45
2021/10/05 01:27:20;;;;;;;1.87;0.70;;;21.10;34.60;;;;;;5099627;23;20021;-45
2021/10/05 01:29:25;;;;;;;3.17;0.70;;;21.10;34.30;;;;;;5104599;23;20026;-42
2021/10/05 01:31:27;;;;;;;2.75;0.75;;;21.10;33.90;;;;;;5103215;23;20016;-43
2021/10/05 01:33:30;;;;;;;1.23;1.00;;;21.10;31.60;;;;;;5103515;23;20020;-47
2021/10/05 01:35:32;;;;;;;1.00;0.65;;;21.00;30.80;;;;;;5104757;23;20757;-42
2021/10/05 01:37:35;;;;;;;1.15;0.50;;;20.90;30.20;;;;;;5102727;23;20086;-40
2021/10/05 01:39:39;;;;;;;2.38;0.45;;;20.90;31.10;;;;;;5099666;23;20022;-42
2021/10/05 01:41:41;;;;;;;2.28;0.70;;;20.90;31.50;;;;;;5100532;23;20091;-42
2021/10/05 01:43:43;;;;;;;2.63;0.60;;;20.90;32.10;;;;;;5103354;23;20032;-41
2021/10/05 01:45:46;;;;;;;1.27;0.52;;;20.90;32.20;;;;;;5102885;23;20082;-44
2021/10/05 01:47:48;;;;;;;1.45;0.85;;;20.90;32.70;;;;;;5100403;23;20840;-45
2021/10/05 01:49:50;;;;;;;1.33;0.60;;;20.90;33.00;;;;;;5102569;23;20019;-42
2021/10/05 01:51:53;;;;;;;2.33;0.55;;;21.00;32.60;;;;;;5104135;23;20087;-42
2021/10/05 01:53:55;;;;;;;1.70;0.80;;;20.90;32.70;;;;;;5103463;23;20043;-42
2021/10/05 01:55:58;;;;;;;1.65;0.63;;;20.90;32.70;;;;;;5100892;23;20016;-42
2021/10/05 01:58:00;;;;;;;0.98;0.60;;;20.90;32.60;;;;;;5104250;23;20529;-42
2021/10/05 02:00:04;;;;;;;1.25;0.70;;;21.00;32.50;;;;;;5103826;23;20016;-40
2021/10/05 02:02:06;;;;;;;1.10;0.70;;;20.90;32.40;;;;;;5103001;23;20114;-40
2021/10/05 02:04:11;;;;;;;0.77;0.60;;;20.90;32.90;;;;;;5104181;23;20032;-42
2021/10/05 02:06:13;;;;;;;0.85;0.60;;;21.00;33.00;;;;;;5101581;23;20104;-42
2021/10/05 02:08:15;;;;;;;0.88;0.65;;;20.90;32.90;;;;;;5102776;23;20027;-45
2021/10/05 02:10:18;;;;;;;3.10;0.60;;;21.00;33.40;;;;;;5104105;23;20012;-44
2021/10/05 02:12:20;;;;;;;2.15;0.50;;;21.00;33.30;;;;;;5102289;23;20017;-43
2021/10/05 02:14:24;;;;;;;1.00;0.50;;;21.00;33.40;;;;;;5101765;23;20086;-43
2021/10/05 02:16:25;;;;;;;;;;;21.00;33.70;;;;;;5101625;23;20336;-43
2021/10/05 02:18:27;;;;;;;1.15;0.60;;;21.00;33.10;;;;;;5100255;23;20010;-41
2021/10/05 02:20:30;;;;;;;1.63;0.65;;;21.00;33.70;;;;;;5098721;23;20024;-42
2021/10/05 02:22:32;;;;;;;1.20;0.68;;;21.00;33.80;;;;;;5103711;23;20016;-45
2021/10/05 02:24:42;;;;;;;2.10;0.70;;;21.00;33.20;;;;;;5101826;23;20024;-40
2021/10/05 02:26:45;;;;;;;1.80;0.65;;;21.10;33.50;;;;;;5104883;23;20122;-43
2021/10/05 02:28:47;;;;;;;1.15;0.55;;;21.10;33.40;;;;;;5104909;23;20263;-42
2021/10/05 02:30:49;;;;;;;1.83;0.70;;;21.10;33.50;;;;;;5104002;23;20076;-42
2021/10/05 02:32:51;;;;;;;0.80;0.70;;;21.10;33.30;;;;;;5103169;23;20078;-44
2021/10/05 02:34:53;;;;;;;0.63;0.50;;;21.10;33.20;;;;;;5100488;23;20024;-42
2021/10/05 02:36:56;;;;;;;1.63;0.70;;;21.10;33.20;;;;;;5102163;23;20016;-41
2021/10/05 02:39:01;;;;;;;1.25;0.70;;;21.10;33.40;;;;;;5095693;23;20112;-41
2021/10/05 02:41:04;;;;;;;1.80;0.80;;;21.10;33.60;;;;;;5101348;23;20576;-41
2021/10/05 02:43:06;;;;;;;0.88;0.60;;;21.20;33.30;;;;;;5101615;23;20023;-42
2021/10/05 02:45:09;;;;;;;1.50;0.98;;;21.10;33.90;;;;;;5102212;23;20035;-44
2021/10/05 02:47:12;;;;;;;1.15;0.98;;;21.20;34.40;;;;;;5102179;23;20983;-44
2021/10/05 02:49:15;;;;;;;1.08;0.70;;;21.20;33.50;;;;;;5100340;23;20102;-44
2021/10/05 02:51:17;;;;;;;1.13;0.82;;;21.20;33.00;;;;;;5101253;23;20091;-42
2021/10/05 02:53:19;;;;;;;1.42;1.02;;;21.20;32.90;;;;;;5102779;23;20111;-46
2021/10/05 02:55:21;;;;;;;3.33;1.10;;;21.20;33.00;;;;;;5096471;23;20013;-41
2021/10/05 02:57:23;;;;;;;1.35;0.90;;;21.20;32.90;;;;;;5101930;23;20021;-41
2021/10/05 02:59:28;;;;;;;1.40;0.77;;;21.30;32.90;;;;;;5100627;23;20120;-43
2021/10/05 03:01:30;;;;;;;3.25;1.20;;;21.30;32.90;;;;;;5100999;23;20016;-43
2021/10/05 03:03:32;;;;;;;1.33;1.10;;;21.30;32.60;;;;;;5101172;23;20008;-43
2021/10/05 03:05:35;;;;;;;1.88;1.17;;;21.30;32.30;;;;;;5103612;23;20526;-43
2021/10/05 03:07:38;;;;;;;2.08;0.90;;;21.30;32.50;;;;;;5100907;23;20019;-42
2021/10/05 03:09:40;;;;;;;3.03;0.95;;;21.30;32.30;;;;;;5097056;23;20020;-42
2021/10/05 03:11:42;;;;;;;2.95;1.00;;;21.40;31.80;;;;;;5090072;23;21131;-41
2021/10/05 03:13:44;;;;;;;1.08;0.85;;;21.30;31.70;;;;;;5100580;23;20020;-44
2021/10/05 03:15:47;;;;;;;1.90;0.90;;;21.40;31.40;;;;;;5091263;23;20012;-43
2021/10/05 03:17:49;;;;;;;1.50;0.77;;;21.40;31.70;;;;;;5104331;23;20111;-41
2021/10/05 03:19:52;;;;;;;1.80;1.00;;;21.40;31.90;;;;;;5090391;23;20539;-50
2021/10/05 03:21:56;;;;;;;2.08;0.98;;;21.40;31.90;;;;;;5095070;23;20039;-50
2021/10/05 03:23:59;;;;;;;2.65;1.02;;;21.40;32.20;;;;;;5092460;23;20024;-54
2021/10/05 03:26:03;;;;;;;2.43;1.40;;;21.40;32.20;;;;;;5092868;23;20019;-52
2021/10/05 03:28:05;;;;;;;2.33;1.50;;;21.50;31.30;;;;;;5094932;23;20123;-53
2021/10/05 03:30:09;;;;;;;2.85;1.25;;;21.40;31.00;;;;;;5101560;23;20752;-51
2021/10/05 03:32:11;;;;;;;2.90;1.35;;;21.50;31.40;;;;;;5097796;23;20020;-52
2021/10/05 03:34:14;;;;;;;2.95;1.20;;;21.50;31.50;;;;;;5101401;23;20027;-50
2021/10/05 03:36:16;;;;;;;2.33;0.90;;;21.60;31.10;;;;;;5089776;23;20847;-49
2021/10/05 03:38:18;;;;;;;2.80;0.93;;;21.60;31.40;;;;;;5100415;23;20017;-52
2021/10/05 03:40:21;;;;;;;2.10;0.95;;;21.60;31.40;;;;;;5100248;23;20111;-54
2021/10/05 03:42:23;;;;;;;1.95;1.00;;;21.60;30.90;;;;;;5103318;23;21425;-50
2021/10/05 03:44:25;;;;;;;2.83;0.95;;;21.70;31.60;;;;;;5102844;23;20036;-52
2021/10/05 03:46:27;;;;;;;2.08;0.90;;;21.70;31.60;;;;;;5102486;23;20032;-53
2021/10/05 03:48:30;;;;;;;1.97;1.33;;;21.70;32.00;;;;;;5102014;23;20339;-53
2021/10/05 03:50:32;;;;;;;2.10;1.20;;;21.80;32.60;;;;;;5061557;23;20377;-50
2021/10/05 03:52:34;;;;;;;2.90;1.15;;;21.80;32.00;;;;;;5104293;23;20016;-53
2021/10/05 03:54:36;;;;;;;3.50;1.30;;;21.90;31.50;;;;;;5102457;23;20027;-54
2021/10/05 03:56:39;;;;;;;2.08;1.30;;;21.90;31.20;;;;;;5102896;23;20017;-53
2021/10/05 03:58:41;;;;;;;2.63;1.00;;;;;;;;;;5101709;23;20111;-53
2021/10/05 04:00:43;;;;;;;2.35;1.02;;;;;;;;;;5092199;23;20112;-56
2021/10/05 04:02:45;;;;;;;2.45;1.15;;;21.90;32.00;;;;;;5102292;23;20800;-52
2021/10/05 04:04:48;;;;;;;1.63;1.08;;;22.10;33.10;;;;;;5103003;23;20029;-52
2021/10/05 04:06:50;;;;;;;2.92;1.15;;;;;;;;;;5102746;23;20012;-51
2021/10/05 04:08:52;;;;;;;1.75;1.10;;;;;;;;;;5103328;23;20084;-56
2021/10/05 04:10:54;;;;;;;3.28;1.20;;;;;;;;;;5066843;23;20935;-56
2021/10/05 04:12:56;;;;;;;2.15;1.20;;;;;;;;;;5105171;23;20938;-53
2021/10/05 04:14:58;;;;;;;3.50;1.20;;;;;;;;;;5103416;23;20119;-53
2021/10/05 04:17:00;;;;;;;4.78;0.98;;;;;;;;;;5103601;23;20022;-54
2021/10/05 04:19:03;;;;;;;3.70;1.40;;;;;;;;;;5094915;23;20021;-48
2021/10/05 04:21:06;;;;;;;;;;;22.10;33.10;;;;;;5097989;23;20170;-48
2021/10/05 04:23:08;;;;;;;3.47;1.10;;;22.50;33.80;;;;;;5096981;23;19907;-55
2021/10/05 04:25:11;;;;;;;2.58;1.25;;;22.60;33.20;;;;;;5104848;23;20028;-48
2021/10/05 04:27:13;;;;;;;2.00;1.17;;;22.60;33.20;;;;;;5104390;23;20021;-49
2021/10/05 04:29:15;;;;;;;2.25;1.02;;;22.70;33.10;;;;;;5103754;23;20100;-54
2021/10/05 04:31:18;;;;;;;2.30;1.20;;;22.70;33.50;;;;;;5103087;23;20073;-53
2021/10/05 04:33:20;;;;;;;3.72;1.45;;;22.80;32.70;;;;;;5105519;23;20012;-51
2021/10/05 04:35:23;;;;;;;3.05;1.27;;;22.80;33.20;;;;;;5093213;23;20017;-54
2021/10/05 04:37:25;;;;;;;3.03;1.10;;;22.90;32.70;;;;;;5107479;23;20027;-51
2021/10/05 04:39:27;;;;;;;2.88;1.30;;;22.90;31.80;;;;;;5106160;23;20110;-54
2021/10/05 04:41:30;;;;;;;2.97;1.30;;;23.00;31.10;;;;;;5106552;23;20050;-52
2021/10/05 04:43:32;;;;;;;5.15;1.50;;;23.00;31.20;;;;;;5071767;23;20330;-59
2021/10/05 04:45:34;;;;;;;3.03;1.35;;;23.00;31.90;;;;;;5107629;23;20021;-50
2021/10/05 04:47:36;;;;;;;2.08;1.15;;;23.10;31.80;;;;;;5108213;23;20019;-51
2021/10/05 04:49:40;;;;;;;4.45;1.17;;;23.20;31.50;;;;;;5107607;23;20063;-53
2021/10/05 04:51:42;;;;;;;4.25;1.30;;;23.20;31.90;;;;;;5109473;23;20013;-45
2021/10/05 04:53:44;;;;;;;3.88;1.13;;;23.20;31.60;;;;;;5109701;23;20031;-51
2021/10/05 04:55:48;;;;;;;3.92;1.30;;;23.30;31.10;;;;;;5108782;23;20025;-49
2021/10/05 04:57:50;;;;;;;4.15;1.52;;;23.30;30.80;;;;;;5112104;23;20020;-51
2021/10/05 04:59:52;;;;;;;2.85;1.17;;;23.40;30.00;;;;;;5107428;23;20024;-53
2021/10/05 05:01:54;;;;;;;3.55;1.13;;;23.50;29.80;;;;;;5108404;23;20916;-52
2021/10/05 05:03:57;;;;;;;3.13;1.20;;;23.50;29.60;;;;;;5067695;23;20124;-53
2021/10/05 05:05:59;;;;;;;4.90;1.38;;;23.50;29.60;;;;;;5094148;23;20012;-53
2021/10/05 05:08:04;;;;;;;3.42;1.10;;;23.50;29.20;;;;;;5103392;23;20536;-46
2021/10/05 05:10:07;;;;;;;2.45;1.25;;;23.50;29.40;;;;;;5095071;23;20033;-52
2021/10/05 05:12:09;;;;;;;3.90;1.10;;;23.60;29.50;;;;;;5102509;23;20016;-53
2021/10/05 05:14:13;;;;;;;3.75;1.17;;;23.60;29.80;;;;;;5101249;23;20351;-53
2021/10/05 05:16:15;;;;;;;3.95;1.23;;;23.70;30.00;;;;;;5104560;23;20137;-52
2021/10/05 05:18:17;;;;;;;2.28;1.00;;;23.70;30.30;;;;;;5102975;23;20016;-49
2021/10/05 05:20:19;;;;;;;4.03;1.20;;;23.70;30.30;;;;;;5102761;23;20225;-52
2021/10/05 05:22:22;;;;;;;3.08;1.08;;;23.70;31.00;;;;;;5095510;23;20021;-48
2021/10/05 05:24:24;;;;;;;3.70;1.27;;;23.70;30.00;;;;;;5095992;23;20020;-49
2021/10/05 05:26:27;;;;;;;6.07;1.30;;;23.70;30.00;;;;;;5101887;23;20023;-52
2021/10/05 05:28:29;;;;;;;4.20;1.50;;;23.60;30.40;;;;;;5093656;23;20016;-51
2021/10/05 05:30:32;;;;;;;2.38;1.17;;;23.60;30.00;;;;;;5103277;23;20036;-49
2021/10/05 05:32:34;;;;;;;5.70;1.33;;;23.60;30.60;;;;;;5097349;23;20073;-57
2021/10/05 05:34:36;;;;;;;3.05;1.30;;;23.70;31.00;;;;;;5094436;23;20081;-54
2021/10/05 05:36:39;;;;;;;3.25;1.40;;;23.70;30.70;;;;;;5098588;23;20063;-49
2021/10/05 05:38:41;;;;;;;4.90;1.40;;;23.70;30.60;;;;;;5085650;23;20517;-51
2021/10/05 05:40:44;;;;;;;3.65;1.55;;;23.80;30.30;;;;;;5096529;23;20096;-52
2021/10/05 05:42:46;;;;;;;4.22;1.42;;;23.80;30.60;;;;;;5096508;23;20013;-50
2021/10/05 05:44:50;;;;;;;4.30;1.50;;;23.80;29.70;;;;;;5099618;23;20102;-50
2021/10/05 05:46:52;;;;;;;3.38;1.48;;;23.80;29.90;;;;;;5096879;23;20012;-46
2021/10/05 05:48:54;;;;;;;4.30;1.58;;;23.80;30.20;;;;;;5096654;23;20028;-54
2021/10/05 05:50:57;;;;;;;4.03;1.80;;;23.90;29.40;;;;;;5100240;23;20043;-45
2021/10/05 05:52:59;;;;;;;2.40;1.50;;;23.90;30.00;;;;;;5098929;23;20016;-49
2021/10/05 05:55:03;;;;;;;3.28;1.30;;;23.90;30.10;;;;;;5099630;23;20024;-48
2021/10/05 05:57:05;;;;;;;6.35;1.67;;;23.90;30.50;;;;;;5098691;23;20019;-53
2021/10/05 05:59:07;;;;;;;3.87;1.40;;;24.00;30.10;;;;;;5100885;23;20016;-50
2021/10/05 06:01:11;;;;;;;3.07;1.37;;;24.00;31.00;;;;;;5100623;23;20020;-49
2021/10/05 06:03:14;;;;;;;2.90;1.40;;;24.00;31.00;;;;;;5101242;23;20158;-46
2021/10/05 06:05:16;;;;;;;3.20;1.38;;;24.00;31.20;;;;;;5092649;23;20043;-47
2021/10/05 06:07:18;;;;;;;3.53;1.40;;;24.10;31.30;;;;;;5102334;23;20089;-52
2021/10/05 06:09:20;;;;;;;3.63;1.30;;;24.10;31.30;;;;;;5097727;23;20269;-53
2021/10/05 06:11:23;;;;;;;4.38;1.52;;;24.10;32.00;;;;;;5102543;23;20023;-51
2021/10/05 06:13:26;;;;;;;4.22;1.20;;;24.10;31.40;;;;;;5098776;23;20084;-53
2021/10/05 06:15:28;;;;;;;2.88;1.20;;;24.20;31.30;;;;;;5096682;23;20112;-49
2021/10/05 06:17:31;;;;;;;2.45;1.10;;;24.20;31.00;;;;;;5102937;23;20053;-52
2021/10/05 06:19:33;;;;;;;3.80;1.10;;;24.20;31.40;;;;;;5093060;23;20019;-49
2021/10/05 06:21:36;;;;;;;4.20;1.23;;;24.20;31.10;;;;;;5098569;23;20087;-51
2021/10/05 06:23:38;;;;;;;2.65;1.10;;;24.20;31.50;;;;;;5100532;23;20017;-46
2021/10/05 06:25:41;;;;;;;2.80;1.30;;;24.20;31.90;;;;;;5064323;23;20056;-48
2021/10/05 06:27:45;;;;;;;3.63;1.48;;;24.30;31.80;;;;;;5092392;23;20020;-53
2021/10/05 06:29:47;;;;;;;4.20;1.10;;;24.30;31.80;;;;;;5101339;23;20059;-49
2021/10/05 06:31:50;;;;;;;3.83;1.58;;;24.30;31.60;;;;;;5103429;23;20158;-46
2021/10/05 06:33:52;;;;;;;3.80;1.52;;;24.30;31.70;;;;;;5100920;23;20019;-53
2021/10/05 06:35:55;;;;;;;2.88;1.45;;;24.40;31.90;;;;;;5100930;23;20016;-51
2021/10/05 06:37:59;;;;;;;3.78;1.52;;;24.30;31.80;;;;;;5101190;23;20024;-54
2021/10/05 06:40:01;;;;;;;4.40;2.03;;;24.40;31.80;;;;;;5100921;23;20439;-50
2021/10/05 06:42:04;;;;;;;5.85;1.50;;;24.40;32.50;;;;;;5100579;23;20998;-48
2021/10/05 06:44:06;;;;;;;3.70;1.47;;;24.40;31.90;;;;;;5098922;23;20028;-54
2021/10/05 06:46:08;;;;;;;3.88;1.52;;;24.40;32.20;;;;;;5099481;23;20035;-48
2021/10/05 06:48:12;;;;;;;3.73;1.37;;;24.40;32.50;;;;;;5101708;23;20020;-50
2021/10/05 06:50:16;;;;;;;4.30;1.45;;;24.40;32.20;;;;;;5100269;23;20817;-53
2021/10/05 06:52:18;;;;;;;3.35;1.38;;;24.40;32.00;;;;;;5101882;23;20112;-53
2021/10/05 06:54:20;;;;;;;2.80;1.17;;;24.40;31.90;;;;;;5099680;23;20067;-52
2021/10/05 06:56:24;;;;;;;3.53;1.55;;;24.40;32.50;;;;;;5101980;23;20108;-49
2021/10/05 06:58:26;;;;;;;4.07;1.50;;;24.40;32.70;;;;;;5091687;23;20013;-54
2021/10/05 07:00:29;;;;;;;7.18;2.20;;;24.40;31.70;;;;;;5101149;23;20021;-49
2021/10/05 07:02:31;;;;;;;2.92;1.40;;;24.40;30.60;;;;;;5099151;23;20118;-48
2021/10/05 07:04:33;;;;;;;3.63;1.52;;;24.30;29.70;;;;;;5090286;23;20118;-49
2021/10/05 07:06:36;;;;;;;3.85;1.40;;;24.20;29.80;;;;;;5060948;23;20465;-53
2021/10/05 07:08:39;;;;;;;;;;;24.20;29.40;;;;;;5090690;23;20027;-52
2021/10/05 07:10:41;;;;;;;5.70;1.88;;;24.10;29.20;;;;;;5099415;23;19908;-55
2021/10/05 07:12:44;;;;;;;5.18;1.80;;;24.00;29.20;;;;;;5098398;23;20020;-52
2021/10/05 07:14:46;;;;;;;6.32;2.30;;;24.00;29.30;;;;;;5100855;23;20053;-54
2021/10/05 07:16:48;;;;;;;4.63;2.00;;;24.00;29.20;;;;;;5099511;23;20088;-53
2021/10/05 07:18:50;;;;;;;6.90;2.10;;;23.90;28.90;;;;;;5099437;23;20024;-54
2021/10/05 07:20:53;;;;;;;7.38;2.08;;;23.80;29.00;;;;;;5101217;23;20021;-51
2021/10/05 07:22:55;;;;;;;7.53;2.58;;;23.80;28.90;;;;;;5103117;23;20043;-46
2021/10/05 07:24:57;;;;;;;6.17;2.27;;;23.70;29.10;;;;;;5102579;23;20171;-51
2021/10/05 07:27:00;;;;;;;6.93;2.50;;;23.60;29.10;;;;;;5100803;23;20016;-53
2021/10/05 07:29:02;;;;;;;6.30;2.70;;;23.60;29.10;;;;;;5099509;23;20020;-52
2021/10/05 07:31:04;;;;;;;9.30;2.80;;;23.50;29.50;;;;;;5101879;23;20012;-52
2021/10/05 07:33:07;;;;;;;7.22;2.85;;;23.50;29.70;;;;;;5099885;23;20009;-55
2021/10/05 07:35:09;;;;;;;6.78;3.35;;;23.40;30.00;;;;;;5091819;23;20207;-56
2021/10/05 07:37:12;;;;;;;6.88;3.10;;;23.40;30.10;;;;;;5091446;23;20203;-53
2021/10/05 07:39:14;;;;;;;8.00;3.28;;;23.40;30.30;;;;;;5101031;23;20016;-50
2021/10/05 07:41:16;;;;;;;10.90;3.72;;;23.40;30.60;;;;;;5063526;23;20017;-52
2021/10/05 07:43:18;;;;;;;6.53;2.83;;;23.40;30.80;;;;;;5101938;23;20012;-56
2021/10/05 07:45:21;;;;;;;6.68;2.80;;;23.30;31.00;;;;;;5098463;23;20111;-50
2021/10/05 07:47:23;;;;;;;9.05;3.33;;;23.30;31.20;;;;;;5100957;23;20020;-47
2021/10/05 07:49:26;;;;;;;8.00;3.13;;;23.30;31.30;;;;;;5090495;23;20048;-53
2021/10/05 07:51:28;;;;;;;6.95;3.58;;;23.30;32.30;;;;;;5099530;23;20096;-53
2021/10/05 07:53:30;;;;;;;6.60;3.47;;;23.30;32.30;;;;;;5097406;23;20023;-51
2021/10/05 07:55:33;;;;;;;9.27;3.92;;;23.30;32.30;;;;;;5100780;23;20017;-51
2021/10/05 07:57:35;;;;;;;10.23;3.47;;;23.30;32.60;;;;;;5092597;23;20013;-46
2021/10/05 07:59:38;;;;;;;6.40;3.50;;;23.30;32.90;;;;;;5100831;23;21130;-51
2021/10/05 08:01:48;;;;;;;6.10;3.22;;;23.30;32.70;;;;;;5101110;23;20016;-52
2021/10/05 08:03:50;;;;;;;7.95;3.33;;;23.20;32.70;;;;;;5093252;23;20021;-50
2021/10/05 08:05:52;;;;;;;7.13;3.15;;;23.20;33.50;;;;;;5089826;23;20039;-52
2021/10/05 08:08:08;;;;;;;9.55;3.70;;;23.20;33.10;;;;;;5102773;23;20139;-54
2021/10/05 08:10:11;;;;;;;8.70;3.47;;;23.20;33.20;;;;;;5092051;23;20121;-53
2021/10/05 08:12:13;;;;;;;7.57;2.88;;;23.20;33.10;;;;;;5101641;23;20063;-54
2021/10/05 08:14:16;;;;;;;8.90;3.27;;;23.20;33.20;;;;;;5103859;23;20028;-55
2021/10/05 08:16:21;;;;;;;8.10;3.25;;;23.10;32.90;;;;;;5092869;23;20020;-54
2021/10/05 08:18:24;;;;;;;6.03;2.80;;;23.10;32.80;;;;;;5102893;23;20016;-47
2021/10/05 08:20:27;;;;;;;7.37;3.00;;;23.10;33.00;;;;;;5090222;23;20526;-55
2021/10/05 08:22:29;;;;;;;5.70;2.20;;;23.10;32.90;;;;;;5103266;23;20020;-58
2021/10/05 08:24:31;;;;;;;7.53;2.40;;;23.00;32.80;;;;;;5102614;23;20110;-55
2021/10/05 08:26:33;;;;;;;6.63;2.75;;;23.00;33.00;;;;;;5104880;23;20040;-56
2021/10/05 08:28:36;;;;;;;6.72;3.20;;;23.00;32.90;;;;;;5101333;23;20116;-53
2021/10/05 08:30:39;;;;;;;7.25;2.63;;;23.00;32.80;;;;;;5103024;23;20023;-54
2021/10/05 08:32:42;;;;;;;8.85;2.80;;;22.90;32.80;;;;;;5100529;23;20024;-54
2021/10/05 08:34:44;;;;;;;5.30;2.90;;;22.90;33.10;;;;;;5093825;23;20108;-51
2021/10/05 08:36:47;;;;;;;7.25;2.53;;;22.90;33.20;;;;;;5099629;23;20110;-52
2021/10/05 08:38:49;;;;;;;11.93;3.13;;;22.90;33.30;;;;;;5096012;23;20024;-55
2021/10/05 08:40:52;;;;;;;6.53;2.00;;;22.90;33.40;;;;;;5086616;23;20040;-50
2021/10/05 08:42:54;;;;;;;5.63;2.47;;;22.90;33.50;;;;;;5098812;23;21128;-51
2021/10/05 08:44:58;;;;;;;8.65;2.63;;;22.80;33.50;;;;;;5096455;23;20031;-51
2021/10/05 08:47:01;;;;;;;6.28;2.70;;;22.80;33.40;;;;;;5061790;23;20013;-53
2021/10/05 08:49:04;;;;;;;8.15;2.88;;;22.80;33.50;;;;;;5090141;23;20024;-48
2021/10/05 08:51:08;;;;;;;6.25;2.47;;;22.80;33.70;;;;;;5097905;23;20012;-48
2021/10/05 08:53:11;;;;;;;8.00;2.88;;;22.70;33.60;;;;;;5096067;23;20031;-49
2021/10/05 08:55:13;;;;;;;5.97;2.47;;;22.70;33.90;;;;;;5097147;23;20900;-48
2021/10/05 08:57:15;;;;;;;5.90;2.55;;;22.70;33.90;;;;;;5095292;23;20013;-50
2021/10/05 08:59:18;;;;;;;5.28;2.10;;;22.70;34.00;;;;;;5098616;23;20017;-53
2021/10/05 09:01:20;;;;;;;4.70;2.22;;;22.70;34.40;;;;;;5098048;23;20013;-53
2021/10/05 09:03:25;;;;;;;6.30;2.78;;;22.70;34.50;;;;;;5098365;23;20016;-48
2021/10/05 09:05:28;;;;;;;5.35;1.85;;;22.70;34.20;;;;;;5099578;23;20024;-51
2021/10/05 09:07:30;;;;;;;6.65;2.40;;;22.70;34.00;;;;;;5100302;23;20016;-55
2021/10/05 09:09:32;;;;;;;4.88;2.10;;;22.70;34.00;;;;;;5097459;23;20016;-52
2021/10/05 09:11:41;;;;;;;7.27;2.43;;;22.70;33.90;;;;;;5100506;23;20020;-51
2021/10/05 09:13:46;;;;;;;6.43;2.45;;;22.70;34.00;;;;;;5098918;23;20017;-54
2021/10/05 09:15:51;;;;;;;6.82;2.25;;;22.60;34.10;;;;;;5102919;23;20024;-51
2021/10/05 09:17:58;;;;;;;6.35;2.10;;;22.60;34.60;;;;;;5102491;23;20504;-53
2021/10/05 09:20:17;;;;;;;4.88;2.00;;;22.60;34.70;;;;;;5102716;23;20264;-57
2021/10/05 09:22:25;;;;;;;4.97;2.13;;;22.60;34.80;;;;;;5103329;23;20055;-48
2021/10/05 09:24:32;;;;;;;6.43;2.22;;;22.60;34.60;;;;;;5090889;23;20027;-50
2021/10/05 09:26:42;;;;;;;6.85;2.40;;;22.50;34.40;;;;;;5094498;23;20012;-52
2021/10/05 09:28:44;;;;;;;6.85;2.22;;;22.50;34.50;;;;;;5102675;23;20119;-51
2021/10/05 09:31:01;;;;;;;4.70;2.03;;;22.50;34.80;;;;;;5098271;23;20043;-51
2021/10/05 09:33:04;;;;;;;4.22;2.00;;;22.50;34.70;;;;;;5098835;23;20044;-48
2021/10/05 09:35:07;;;;;;;5.25;2.15;;;22.50;34.90;;;;;;5097043;23;20016;-56
2021/10/05 09:37:18;;;;;;;5.38;2.22;;;22.50;34.50;;;;;;5097543;23;20071;-48
2021/10/05 09:39:21;;;;;;;6.78;2.40;;;22.50;34.40;;;;;;5095311;23;20020;-49
2021/10/05 09:41:23;;;;;;;6.22;2.17;;;22.40;34.20;;;;;;5089340;23;20027;-47
2021/10/05 09:43:27;;;;;;;7.47;2.55;;;22.40;34.70;;;;;;5098913;23;20095;-50
2021/10/05 09:45:35;;;;;;;9.00;2.67;;;22.40;34.90;;;;;;5097735;23;20669;-54
2021/10/05 09:47:37;;;;;;;6.25;1.90;;;22.40;34.90;;;;;;5097055;23;20009;-50
2021/10/05 09:49:46;;;;;;;8.82;2.42;;;22.40;34.50;;;;;;5088765;23;20017;-49
2021/10/05 09:51:57;;;;;;;7.50;2.15;;;22.40;35.00;;;;;;5087617;23;20751;-54
2021/10/05 09:54:00;;;;;;;8.43;2.17;;;22.30;34.70;;;;;;5095769;23;20028;-54
2021/10/05 09:56:02;;;;;;;8.43;2.70;;;22.30;34.20;;;;;;5092112;23;20023;-51
2021/10/05 09:58:05;;;;;;;6.35;2.30;;;22.30;34.20;;;;;;5095474;23;20253;-52
2021/10/05 10:00:09;;;;;;;5.45;2.35;;;22.30;34.30;;;;;;5096314;23;20036;-52
2021/10/05 10:02:15;;;;;;;6.95;2.53;;;22.30;34.50;;;;;;5096109;23;20855;-52
2021/10/05 10:04:21;;;;;;;7.18;2.65;;;22.20;34.30;;;;;;5093802;23;20024;-53
2021/10/05 10:06:24;;;;;;;5.72;2.05;;;22.30;34.40;;;;;;5094739;23;20017;-50
2021/10/05 10:08:29;;;;;;;7.47;2.35;;;22.20;34.70;;;;;;5095628;23;20092;-52
2021/10/05 10:10:37;;;;;;;6.80;2.15;;;22.20;34.50;;;;;;5086812;23;20403;-51
2021/10/05 10:13:04;;;;;;;6.38;2.10;;;22.20;34.40;;;;;;5097108;23;20023;-51
2021/10/05 10:15:09;;;;;;;6.22;2.58;;;22.10;34.50;;;;;;5095285;23;20023;-49
2021/10/05 10:17:21;;;;;;;9.27;2.50;;;22.10;34.60;;;;;;5093552;23;20028;-47
2021/10/05 10:19:33;;;;;;;6.13;2.15;;;22.10;34.70;;;;;;5095819;23;20028;-49
2021/10/05 10:21:40;;;;;;;7.82;2.95;;;22.10;34.60;;;;;;5095545;23;20021;-46
2021/10/05 10:23:42;;;;;;;8.32;2.25;;;22.10;34.80;;;;;;5061038;23;20021;-47
2021/10/05 10:25:58;;;;;;;6.40;2.25;;;22.10;34.80;;;;;;5094474;23;20040;-51
2021/10/05 10:28:25;;;;;;;5.38;1.92;;;22.00;34.80;;;;;;5093032;23;20048;-47
2021/10/05 10:30:29;;;;;;;5.68;2.50;;;22.00;34.90;;;;;;5096298;23;20020;-48
2021/10/05 10:32:46;;;;;;;7.47;2.55;;;22.00;34.90;;;;;;5095861;23;21064;-48
2021/10/05 10:35:03;;;;;;;7.10;2.30;;;22.00;35.00;;;;;;5095699;23;20013;-47
2021/10/05 10:37:20;;;;;;;7.50;2.22;;;22.00;35.10;;;;;;5061824;23;21103;-46
2021/10/05 10:39:25;;;;;;;6.55;2.38;;;21.90;35.00;;;;;;5086464;23;20012;-48
2021/10/05 10:41:27;;;;;;;7.57;1.92;;;21.90;35.10;;;;;;5058518;23;20561;-46
2021/10/05 10:43:30;;;;;;;7.28;2.10;;;21.90;35.20;;;;;;5100371;23;20098;-49
2021/10/05 10:45:52;;;;;;;7.35;2.65;;;21.90;35.30;;;;;;5090872;23;20024;-49